sensor_id;sensor_type;location;lat;lon;timestamp;pressure;altitude;pressure_sealevel;temperature
60731;BMP280;46580;52.114;11.674;2024-03-06T00:01:42;-19345.84;;;4.85
60731;BMP280;46580;52.114;11.674;2024-03-06T00:04:07;-19347.00;;;4.89
60731;BMP280;46580;52.114;11.674;2024-03-06T00:06:33;-19346.84;;;4.89
60731;BMP280;46580;52.114;11.674;2024-03-06T00:09:16;-19349.44;;;4.98
60731;BMP280;46580;52.114;11.674;2024-03-06T00:11:46;-19349.59;;;4.98
60731;BMP280;46580;52.114;11.674;2024-03-06T00:14:12;-19349.72;;;4.99
60731;BMP280;46580;52.114;11.674;2024-03-06T00:16:38;-19347.84;;;4.92
60731;BMP280;46580;52.114;11.674;2024-03-06T00:19:03;-19349.72;;;4.99
60731;BMP280;46580;52.114;11.674;2024-03-06T00:21:29;-19350.59;;;5.01
60731;BMP280;46580;52.114;11.674;2024-03-06T00:23:55;-19351.88;;;5.06
60731;BMP280;46580;52.114;11.674;2024-03-06T00:26:21;-19349.72;;;4.99
60731;BMP280;46580;52.114;11.674;2024-03-06T00:28:46;-19350.44;;;5.01
60731;BMP280;46580;52.114;11.674;2024-03-06T00:31:12;-19349.59;;;4.98
60731;BMP280;46580;52.114;11.674;2024-03-06T00:33:37;-19347.72;;;4.92
60731;BMP280;46580;52.114;11.674;2024-03-06T00:36:03;-19345.56;;;4.84
60731;BMP280;46580;52.114;11.674;2024-03-06T00:38:29;-19343.84;;;4.79
60731;BMP280;46580;52.114;11.674;2024-03-06T00:40:55;-19342.97;;;4.76
60731;BMP280;46580;52.114;11.674;2024-03-06T00:43:22;-19341.97;;;4.72
60731;BMP280;46580;52.114;11.674;2024-03-06T00:45:47;-19340.81;;;4.68
60731;BMP280;46580;52.114;11.674;2024-03-06T00:48:13;-19339.81;;;4.65
60731;BMP280;46580;52.114;11.674;2024-03-06T00:50:41;-19339.81;;;4.65
60731;BMP280;46580;52.114;11.674;2024-03-06T00:53:07;-19338.38;;;4.60
60731;BMP280;46580;52.114;11.674;2024-03-06T00:55:32;-19338.53;;;4.61
60731;BMP280;46580;52.114;11.674;2024-03-06T00:57:57;-19337.09;;;4.56
60731;BMP280;46580;52.114;11.674;2024-03-06T01:00:23;-19337.25;;;4.56
60731;BMP280;46580;52.114;11.674;2024-03-06T01:02:48;-19333.94;;;4.45
60731;BMP280;46580;52.114;11.674;2024-03-06T01:05:14;-19336.09;;;4.52
60731;BMP280;46580;52.114;11.674;2024-03-06T01:07:39;-19336.09;;;4.52
60731;BMP280;46580;52.114;11.674;2024-03-06T01:10:05;-19335.22;;;4.49
60731;BMP280;46580;52.114;11.674;2024-03-06T01:12:32;-19335.81;;;4.51
60731;BMP280;46580;52.114;11.674;2024-03-06T01:14:57;-19334.38;;;4.46
60731;BMP280;46580;52.114;11.674;2024-03-06T01:17:23;-19333.22;;;4.43
60731;BMP280;46580;52.114;11.674;2024-03-06T01:19:48;-19333.50;;;4.44
60731;BMP280;46580;52.114;11.674;2024-03-06T01:22:14;-19334.06;;;4.45
60731;BMP280;46580;52.114;11.674;2024-03-06T01:24:39;-19333.78;;;4.45
60731;BMP280;46580;52.114;11.674;2024-03-06T01:27:05;-19333.78;;;4.45
60731;BMP280;46580;52.114;11.674;2024-03-06T01:29:31;-19332.34;;;4.40
60731;BMP280;46580;52.114;11.674;2024-03-06T01:31:57;-19332.78;;;4.41
60731;BMP280;46580;52.114;11.674;2024-03-06T01:34:23;-19331.34;;;4.36
60731;BMP280;46580;52.114;11.674;2024-03-06T01:36:48;-19331.34;;;4.36
60731;BMP280;46580;52.114;11.674;2024-03-06T01:39:14;-19331.63;;;4.37
60731;BMP280;46580;52.114;11.674;2024-03-06T01:41:49;-19332.34;;;4.40
60731;BMP280;46580;52.114;11.674;2024-03-06T01:44:17;-19333.06;;;4.42
60731;BMP280;46580;52.114;11.674;2024-03-06T01:46:45;-19333.06;;;4.42
60731;BMP280;46580;52.114;11.674;2024-03-06T01:49:12;-19333.78;;;4.45
60731;BMP280;46580;52.114;11.674;2024-03-06T01:51:41;-19336.09;;;4.52
60731;BMP280;46580;52.114;11.674;2024-03-06T01:54:06;-19336.66;;;4.54
60731;BMP280;46580;52.114;11.674;2024-03-06T01:56:36;-19335.22;;;4.49
60731;BMP280;46580;52.114;11.674;2024-03-06T01:59:03;-19332.06;;;4.39
60731;BMP280;46580;52.114;11.674;2024-03-06T02:01:29;-19331.50;;;4.37
60731;BMP280;46580;52.114;11.674;2024-03-06T02:03:56;-19330.19;;;4.32
60731;BMP280;46580;52.114;11.674;2024-03-06T02:06:21;-19329.47;;;4.30
60731;BMP280;46580;52.114;11.674;2024-03-06T02:08:47;-19329.34;;;4.29
60731;BMP280;46580;52.114;11.674;2024-03-06T02:11:12;-19330.06;;;4.32
60731;BMP280;46580;52.114;11.674;2024-03-06T02:13:39;-19328.91;;;4.28
60731;BMP280;46580;52.114;11.674;2024-03-06T02:16:05;-19328.47;;;4.26
60731;BMP280;46580;52.114;11.674;2024-03-06T02:18:31;-19327.19;;;4.22
60731;BMP280;46580;52.114;11.674;2024-03-06T02:20:56;-19326.03;;;4.18
60731;BMP280;46580;52.114;11.674;2024-03-06T02:23:22;-19326.03;;;4.18
60731;BMP280;46580;52.114;11.674;2024-03-06T02:25:47;-19326.19;;;4.19
60731;BMP280;46580;52.114;11.674;2024-03-06T02:28:16;-19326.91;;;4.21
60731;BMP280;46580;52.114;11.674;2024-03-06T02:30:43;-19327.47;;;4.23
60731;BMP280;46580;52.114;11.674;2024-03-06T02:33:13;-19327.19;;;4.22
60731;BMP280;46580;52.114;11.674;2024-03-06T02:35:39;-19327.03;;;4.22
60731;BMP280;46580;52.114;11.674;2024-03-06T02:38:05;-19325.88;;;4.18
60731;BMP280;46580;52.114;11.674;2024-03-06T02:40:31;-19324.31;;;4.12
60731;BMP280;46580;52.114;11.674;2024-03-06T02:42:57;-19321.88;;;4.04
60731;BMP280;46580;52.114;11.674;2024-03-06T02:45:22;-19322.00;;;4.05
60731;BMP280;46580;52.114;11.674;2024-03-06T02:47:48;-19322.31;;;4.06
60731;BMP280;46580;52.114;11.674;2024-03-06T02:50:14;-19323.16;;;4.08
60731;BMP280;46580;52.114;11.674;2024-03-06T02:52:39;-19323.03;;;4.08
60731;BMP280;46580;52.114;11.674;2024-03-06T02:55:05;-19323.31;;;4.09
60731;BMP280;46580;52.114;11.674;2024-03-06T02:57:31;-19323.31;;;4.09
60731;BMP280;46580;52.114;11.674;2024-03-06T02:59:57;-19322.72;;;4.07
60731;BMP280;46580;52.114;11.674;2024-03-06T03:02:22;-19321.72;;;4.04
60731;BMP280;46580;52.114;11.674;2024-03-06T03:04:49;-19321.88;;;4.04
60731;BMP280;46580;52.114;11.674;2024-03-06T03:07:14;-19322.16;;;4.05
60731;BMP280;46580;52.114;11.674;2024-03-06T03:09:40;-19322.59;;;4.07
60731;BMP280;46580;52.114;11.674;2024-03-06T03:12:06;-19321.28;;;4.02
60731;BMP280;46580;52.114;11.674;2024-03-06T03:14:31;-19321.59;;;4.03
60731;BMP280;46580;52.114;11.674;2024-03-06T03:16:57;-19322.88;;;4.07
60731;BMP280;46580;52.114;11.674;2024-03-06T03:19:22;-19321.16;;;4.02
60731;BMP280;46580;52.114;11.674;2024-03-06T03:21:47;-19319.44;;;3.96
60731;BMP280;46580;52.114;11.674;2024-03-06T03:24:13;-19321.44;;;4.03
60731;BMP280;46580;52.114;11.674;2024-03-06T03:26:38;-19321.72;;;4.04
60731;BMP280;46580;52.114;11.674;2024-03-06T03:29:04;-19322.59;;;4.07
60731;BMP280;46580;52.114;11.674;2024-03-06T03:31:30;-19321.00;;;4.01
60731;BMP280;46580;52.114;11.674;2024-03-06T03:33:55;-19320.56;;;4.00
60731;BMP280;46580;52.114;11.674;2024-03-06T03:36:21;-19323.16;;;4.08
60731;BMP280;46580;52.114;11.674;2024-03-06T03:38:46;-19322.00;;;4.05
60731;BMP280;46580;52.114;11.674;2024-03-06T03:41:12;-19322.88;;;4.07
60731;BMP280;46580;52.114;11.674;2024-03-06T03:43:41;-19324.16;;;4.12
60731;BMP280;46580;52.114;11.674;2024-03-06T03:46:07;-19324.44;;;4.13
60731;BMP280;46580;52.114;11.674;2024-03-06T03:48:32;-19325.03;;;4.15
60731;BMP280;46580;52.114;11.674;2024-03-06T03:51:01;-19324.59;;;4.13
60731;BMP280;46580;52.114;11.674;2024-03-06T03:53:28;-19323.03;;;4.08
60731;BMP280;46580;52.114;11.674;2024-03-06T03:55:54;-19323.16;;;4.08
60731;BMP280;46580;52.114;11.674;2024-03-06T03:58:19;-19322.44;;;4.06
60731;BMP280;46580;52.114;11.674;2024-03-06T04:00:45;-19321.59;;;4.03
60731;BMP280;46580;52.114;11.674;2024-03-06T04:03:10;-19321.59;;;4.03
60731;BMP280;46580;52.114;11.674;2024-03-06T04:05:42;-19321.59;;;4.03
60731;BMP280;46580;52.114;11.674;2024-03-06T04:08:09;-19319.44;;;3.96
60731;BMP280;46580;52.114;11.674;2024-03-06T04:10:37;-19317.84;;;3.90
60731;BMP280;46580;52.114;11.674;2024-03-06T04:13:02;-19317.28;;;3.89
60731;BMP280;46580;52.114;11.674;2024-03-06T04:15:28;-19317.00;;;3.88
60731;BMP280;46580;52.114;11.674;2024-03-06T04:17:53;-19317.00;;;3.88
60731;BMP280;46580;52.114;11.674;2024-03-06T04:20:19;-19318.28;;;3.92
60731;BMP280;46580;52.114;11.674;2024-03-06T04:22:44;-19317.13;;;3.88
60731;BMP280;46580;52.114;11.674;2024-03-06T04:25:11;-19316.84;;;3.87
60731;BMP280;46580;52.114;11.674;2024-03-06T04:27:37;-19317.41;;;3.89
60731;BMP280;46580;52.114;11.674;2024-03-06T04:30:03;-19318.41;;;3.92
60731;BMP280;46580;52.114;11.674;2024-03-06T04:32:29;-19316.56;;;3.86
60731;BMP280;46580;52.114;11.674;2024-03-06T04:34:56;-19315.84;;;3.84
60731;BMP280;46580;52.114;11.674;2024-03-06T04:37:21;-19313.69;;;3.76
60731;BMP280;46580;52.114;11.674;2024-03-06T04:39:48;-19314.53;;;3.79
60731;BMP280;46580;52.114;11.674;2024-03-06T04:42:14;-19313.41;;;3.75
60731;BMP280;46580;52.114;11.674;2024-03-06T04:44:40;-19312.97;;;3.74
60731;BMP280;46580;52.114;11.674;2024-03-06T04:47:07;-19311.38;;;3.69
60731;BMP280;46580;52.114;11.674;2024-03-06T04:49:33;-19309.94;;;3.64
60731;BMP280;46580;52.114;11.674;2024-03-06T04:52:01;-19310.81;;;3.67
60731;BMP280;46580;52.114;11.674;2024-03-06T04:54:26;-19308.38;;;3.58
60731;BMP280;46580;52.114;11.674;2024-03-06T04:56:53;-19308.22;;;3.58
60731;BMP280;46580;52.114;11.674;2024-03-06T04:59:18;-19307.38;;;3.55
60731;BMP280;46580;52.114;11.674;2024-03-06T05:01:43;-19306.66;;;3.52
60731;BMP280;46580;52.114;11.674;2024-03-06T05:04:09;-19303.63;;;3.42
60731;BMP280;46580;52.114;11.674;2024-03-06T05:06:35;-19303.34;;;3.41
60731;BMP280;46580;52.114;11.674;2024-03-06T05:09:01;-19303.06;;;3.40
60731;BMP280;46580;52.114;11.674;2024-03-06T05:11:27;-19303.91;;;3.43
60731;BMP280;46580;52.114;11.674;2024-03-06T05:13:53;-19303.63;;;3.42
60731;BMP280;46580;52.114;11.674;2024-03-06T05:16:18;-19302.75;;;3.39
60731;BMP280;46580;52.114;11.674;2024-03-06T05:18:43;-19301.31;;;3.34
60731;BMP280;46580;52.114;11.674;2024-03-06T05:21:09;-19300.19;;;3.31
60731;BMP280;46580;52.114;11.674;2024-03-06T05:23:34;-19298.16;;;3.24
60731;BMP280;46580;52.114;11.674;2024-03-06T05:26:00;-19296.44;;;3.18
60731;BMP280;46580;52.114;11.674;2024-03-06T05:28:25;-19295.88;;;3.16
60731;BMP280;46580;52.114;11.674;2024-03-06T05:30:50;-19297.00;;;3.20
60731;BMP280;46580;52.114;11.674;2024-03-06T05:33:16;-19300.19;;;3.31
60731;BMP280;46580;52.114;11.674;2024-03-06T05:35:41;-19299.47;;;3.28
60731;BMP280;46580;52.114;11.674;2024-03-06T05:38:07;-19296.72;;;3.19
60731;BMP280;46580;52.114;11.674;2024-03-06T05:40:33;-19295.59;;;3.15
60731;BMP280;46580;52.114;11.674;2024-03-06T05:43:02;-19294.56;;;3.12
60731;BMP280;46580;52.114;11.674;2024-03-06T05:45:28;-19293.84;;;3.09
60731;BMP280;46580;52.114;11.674;2024-03-06T05:47:54;-19294.56;;;3.12
60731;BMP280;46580;52.114;11.674;2024-03-06T05:50:19;-19294.72;;;3.12
60731;BMP280;46580;52.114;11.674;2024-03-06T05:52:44;-19295.28;;;3.14
60731;BMP280;46580;52.114;11.674;2024-03-06T05:55:10;-19296.16;;;3.17
60731;BMP280;46580;52.114;11.674;2024-03-06T05:57:35;-19295.00;;;3.13
60731;BMP280;46580;52.114;11.674;2024-03-06T06:00:01;-19293.56;;;3.08
60731;BMP280;46580;52.114;11.674;2024-03-06T06:02:27;-19293.84;;;3.09
60731;BMP280;46580;52.114;11.674;2024-03-06T06:04:52;-19293.28;;;3.07
60731;BMP280;46580;52.114;11.674;2024-03-06T06:07:18;-19292.13;;;3.03
60731;BMP280;46580;52.114;11.674;2024-03-06T06:09:43;-19289.13;;;2.93
60731;BMP280;46580;52.114;11.674;2024-03-06T06:12:08;-19289.25;;;2.94
60731;BMP280;46580;52.114;11.674;2024-03-06T06:14:34;-19287.97;;;2.89
60731;BMP280;46580;52.114;11.674;2024-03-06T06:17:00;-19289.25;;;2.94
60731;BMP280;46580;52.114;11.674;2024-03-06T06:19:25;-19289.25;;;2.94
60731;BMP280;46580;52.114;11.674;2024-03-06T06:21:54;-19292.13;;;3.03
60731;BMP280;46580;52.114;11.674;2024-03-06T06:24:19;-19291.56;;;3.01
60731;BMP280;46580;52.114;11.674;2024-03-06T06:26:45;-19291.84;;;3.02
60731;BMP280;46580;52.114;11.674;2024-03-06T06:29:10;-19288.81;;;2.92
60731;BMP280;46580;52.114;11.674;2024-03-06T06:31:36;-19284.38;;;2.77
60731;BMP280;46580;52.114;11.674;2024-03-06T06:34:01;-19279.78;;;2.61
60731;BMP280;46580;52.114;11.674;2024-03-06T06:36:26;-19277.75;;;2.55
60731;BMP280;46580;52.114;11.674;2024-03-06T06:38:53;-19280.34;;;2.63
60731;BMP280;46580;52.114;11.674;2024-03-06T06:41:19;-19279.78;;;2.61
60731;BMP280;46580;52.114;11.674;2024-03-06T06:43:45;-19278.34;;;2.57
60731;BMP280;46580;52.114;11.674;2024-03-06T06:46:10;-19278.34;;;2.57
60731;BMP280;46580;52.114;11.674;2024-03-06T06:48:36;-19277.47;;;2.54
60731;BMP280;46580;52.114;11.674;2024-03-06T06:51:01;-19277.75;;;2.55
60731;BMP280;46580;52.114;11.674;2024-03-06T06:53:28;-19280.19;;;2.63
60731;BMP280;46580;52.114;11.674;2024-03-06T06:55:55;-19280.63;;;2.64
60731;BMP280;46580;52.114;11.674;2024-03-06T06:58:20;-19279.63;;;2.61
60731;BMP280;46580;52.114;11.674;2024-03-06T07:00:46;-19279.47;;;2.60
60731;BMP280;46580;52.114;11.674;2024-03-06T07:03:11;-19279.47;;;2.60
60731;BMP280;46580;52.114;11.674;2024-03-06T07:05:36;-19281.50;;;2.67
60731;BMP280;46580;52.114;11.674;2024-03-06T07:08:03;-19280.19;;;2.63
60731;BMP280;46580;52.114;11.674;2024-03-06T07:10:28;-19280.63;;;2.64
60731;BMP280;46580;52.114;11.674;2024-03-06T07:12:54;-19280.34;;;2.63
60731;BMP280;46580;52.114;11.674;2024-03-06T07:15:21;-19284.50;;;2.78
60731;BMP280;46580;52.114;11.674;2024-03-06T07:17:47;-19286.38;;;2.84
60731;BMP280;46580;52.114;11.674;2024-03-06T07:20:12;-19286.53;;;2.84
60731;BMP280;46580;52.114;11.674;2024-03-06T07:22:39;-19288.81;;;2.92
60731;BMP280;46580;52.114;11.674;2024-03-06T07:25:04;-19287.81;;;2.89
60731;BMP280;46580;52.114;11.674;2024-03-06T07:27:30;-19291.56;;;3.01
60731;BMP280;46580;52.114;11.674;2024-03-06T07:29:56;-19295.00;;;3.13
60731;BMP280;46580;52.114;11.674;2024-03-06T07:32:21;-19293.84;;;3.09
60731;BMP280;46580;52.114;11.674;2024-03-06T07:34:46;-19293.84;;;3.09
60731;BMP280;46580;52.114;11.674;2024-03-06T07:37:12;-19298.16;;;3.24
60731;BMP280;46580;52.114;11.674;2024-03-06T07:39:39;-19298.75;;;3.26
60731;BMP280;46580;52.114;11.674;2024-03-06T07:42:04;-19303.34;;;3.41
60731;BMP280;46580;52.114;11.674;2024-03-06T07:44:30;-19306.34;;;3.52
60731;BMP280;46580;52.114;11.674;2024-03-06T07:46:56;-19308.94;;;3.60
60731;BMP280;46580;52.114;11.674;2024-03-06T07:49:21;-19310.81;;;3.67
60731;BMP280;46580;52.114;11.674;2024-03-06T07:51:49;-19311.97;;;3.71
60731;BMP280;46580;52.114;11.674;2024-03-06T07:54:15;-19314.97;;;3.81
60731;BMP280;46580;52.114;11.674;2024-03-06T07:56:40;-19315.97;;;3.84
60731;BMP280;46580;52.114;11.674;2024-03-06T07:59:05;-19315.69;;;3.83
60731;BMP280;46580;52.114;11.674;2024-03-06T08:01:31;-19317.13;;;3.88
60731;BMP280;46580;52.114;11.674;2024-03-06T08:03:58;-19320.16;;;3.98
60731;BMP280;46580;52.114;11.674;2024-03-06T08:06:23;-19321.28;;;4.02
60731;BMP280;46580;52.114;11.674;2024-03-06T08:08:48;-19321.44;;;4.03
60731;BMP280;46580;52.114;11.674;2024-03-06T08:11:14;-19324.03;;;4.11
60731;BMP280;46580;52.114;11.674;2024-03-06T08:13:41;-19328.47;;;4.26
60731;BMP280;46580;52.114;11.674;2024-03-06T08:16:07;-19328.91;;;4.28
60731;BMP280;46580;52.114;11.674;2024-03-06T08:18:34;-19331.22;;;4.36
60731;BMP280;46580;52.114;11.674;2024-03-06T08:21:00;-19332.06;;;4.39
60731;BMP280;46580;52.114;11.674;2024-03-06T08:23:25;-19334.94;;;4.48
60731;BMP280;46580;52.114;11.674;2024-03-06T08:25:51;-19336.38;;;4.53
60731;BMP280;46580;52.114;11.674;2024-03-06T08:28:18;-19340.69;;;4.68
60731;BMP280;46580;52.114;11.674;2024-03-06T08:30:43;-19343.69;;;4.78
60731;BMP280;46580;52.114;11.674;2024-03-06T08:33:09;-19347.56;;;4.91
60731;BMP280;46580;52.114;11.674;2024-03-06T08:35:34;-19351.88;;;5.06
60731;BMP280;46580;52.114;11.674;2024-03-06T08:38:00;-19355.63;;;5.19
60731;BMP280;46580;52.114;11.674;2024-03-06T08:40:25;-19358.34;;;5.28
60731;BMP280;46580;52.114;11.674;2024-03-06T08:42:52;-19360.34;;;5.35
60731;BMP280;46580;52.114;11.674;2024-03-06T08:45:18;-19362.06;;;5.40
60731;BMP280;46580;52.114;11.674;2024-03-06T08:47:44;-19365.81;;;5.53
60731;BMP280;46580;52.114;11.674;2024-03-06T08:50:10;-19372.25;;;5.75
60731;BMP280;46580;52.114;11.674;2024-03-06T08:52:36;-19371.13;;;5.71
60731;BMP280;46580;52.114;11.674;2024-03-06T08:55:02;-19376.00;;;5.88
60731;BMP280;46580;52.114;11.674;2024-03-06T08:57:35;-19381.59;;;6.07
60731;BMP280;46580;52.114;11.674;2024-03-06T09:00:02;-19381.16;;;6.05
60731;BMP280;46580;52.114;11.674;2024-03-06T09:02:29;-19385.19;;;6.19
60731;BMP280;46580;52.114;11.674;2024-03-06T09:04:55;-19388.34;;;6.30
60731;BMP280;46580;52.114;11.674;2024-03-06T09:07:20;-19390.91;;;6.38
60731;BMP280;46580;52.114;11.674;2024-03-06T09:09:49;-19396.06;;;6.56
60731;BMP280;46580;52.114;11.674;2024-03-06T09:12:15;-19396.06;;;6.56
60731;BMP280;46580;52.114;11.674;2024-03-06T09:14:41;-19397.09;;;6.59
60731;BMP280;46580;52.114;11.674;2024-03-06T09:17:07;-19396.22;;;6.56
60731;BMP280;46580;52.114;11.674;2024-03-06T09:19:34;-19401.97;;;6.76
60731;BMP280;46580;52.114;11.674;2024-03-06T09:22:00;-19407.41;;;6.94
60731;BMP280;46580;52.114;11.674;2024-03-06T09:24:26;-19410.41;;;7.05
60731;BMP280;46580;52.114;11.674;2024-03-06T09:26:53;-19411.00;;;7.06
60731;BMP280;46580;52.114;11.674;2024-03-06T09:29:18;-19410.41;;;7.05
60731;BMP280;46580;52.114;11.674;2024-03-06T09:31:44;-19411.13;;;7.07
60731;BMP280;46580;52.114;11.674;2024-03-06T09:34:11;-19411.84;;;7.09
60731;BMP280;46580;52.114;11.674;2024-03-06T09:36:40;-19410.56;;;7.05
60731;BMP280;46580;52.114;11.674;2024-03-06T09:39:08;-19417.88;;;7.30
60731;BMP280;46580;52.114;11.674;2024-03-06T09:41:34;-19415.16;;;7.21
60731;BMP280;46580;52.114;11.674;2024-03-06T09:44:00;-19419.59;;;7.36
60731;BMP280;46580;52.114;11.674;2024-03-06T09:46:26;-19419.16;;;7.34
60731;BMP280;46580;52.114;11.674;2024-03-06T09:48:53;-19422.47;;;7.45
60731;BMP280;46580;52.114;11.674;2024-03-06T09:51:19;-19427.34;;;7.62
60731;BMP280;46580;52.114;11.674;2024-03-06T09:53:46;-19429.63;;;7.70
60731;BMP280;46580;52.114;11.674;2024-03-06T09:56:14;-19433.50;;;7.83
60731;BMP280;46580;52.114;11.674;2024-03-06T09:58:40;-19435.94;;;7.91
60731;BMP280;46580;52.114;11.674;2024-03-06T10:01:06;-19433.22;;;7.82
60731;BMP280;46580;52.114;11.674;2024-03-06T10:03:33;-19434.06;;;7.85
60731;BMP280;46580;52.114;11.674;2024-03-06T10:05:59;-19438.66;;;8.00
60731;BMP280;46580;52.114;11.674;2024-03-06T10:08:24;-19437.06;;;7.95
60731;BMP280;46580;52.114;11.674;2024-03-06T10:10:52;-19434.34;;;7.86
60731;BMP280;46580;52.114;11.674;2024-03-06T10:13:22;-19442.69;;;8.14
60731;BMP280;46580;52.114;11.674;2024-03-06T10:16:00;-19448.84;;;8.35
60731;BMP280;46580;52.114;11.674;2024-03-06T10:18:27;-19449.13;;;8.36
60731;BMP280;46580;52.114;11.674;2024-03-06T10:20:52;-19445.09;;;8.22
60731;BMP280;46580;52.114;11.674;2024-03-06T10:23:18;-19445.41;;;8.23
60731;BMP280;46580;52.114;11.674;2024-03-06T10:25:44;-19445.69;;;8.24
60731;BMP280;46580;52.114;11.674;2024-03-06T10:28:11;-19449.69;;;8.38
60731;BMP280;46580;52.114;11.674;2024-03-06T10:30:39;-19457.28;;;8.64
60731;BMP280;46580;52.114;11.674;2024-03-06T10:33:09;-19454.00;;;8.53
60731;BMP280;46580;52.114;11.674;2024-03-06T10:35:35;-19453.69;;;8.52
60731;BMP280;46580;52.114;11.674;2024-03-06T10:38:05;-19453.56;;;8.51
60731;BMP280;46580;52.114;11.674;2024-03-06T10:40:32;-19453.13;;;8.50
60731;BMP280;46580;52.114;11.674;2024-03-06T10:42:59;-19457.84;;;8.66
60731;BMP280;46580;52.114;11.674;2024-03-06T10:45:41;-19462.00;;;8.80
60731;BMP280;46580;52.114;11.674;2024-03-06T10:48:13;-19469.16;;;9.04
60731;BMP280;46580;52.114;11.674;2024-03-06T10:50:40;-19462.31;;;8.81
60731;BMP280;46580;52.114;11.674;2024-03-06T10:53:11;-19459.72;;;8.72
60731;BMP280;46580;52.114;11.674;2024-03-06T10:55:37;-19466.75;;;8.96
60731;BMP280;46580;52.114;11.674;2024-03-06T10:58:06;-19470.47;;;9.09
60731;BMP280;46580;52.114;11.674;2024-03-06T11:00:39;-19471.19;;;9.11
60731;BMP280;46580;52.114;11.674;2024-03-06T11:03:06;-19468.59;;;9.02
60731;BMP280;46580;52.114;11.674;2024-03-06T11:05:35;-19475.19;;;9.25
60731;BMP280;46580;52.114;11.674;2024-03-06T11:08:02;-19477.47;;;9.32
60731;BMP280;46580;52.114;11.674;2024-03-06T11:10:32;-19481.19;;;9.45
60731;BMP280;46580;52.114;11.674;2024-03-06T11:12:57;-19478.63;;;9.36
60731;BMP280;46580;52.114;11.674;2024-03-06T11:15:24;-19483.19;;;9.52
60731;BMP280;46580;52.114;11.674;2024-03-06T11:17:49;-19486.78;;;9.64
60731;BMP280;46580;52.114;11.674;2024-03-06T11:20:18;-19493.81;;;9.88
60731;BMP280;46580;52.114;11.674;2024-03-06T11:28:22;-19483.78;;;9.54
60731;BMP280;46580;52.114;11.674;2024-03-06T11:30:48;-19492.94;;;9.85
60731;BMP280;46580;52.114;11.674;2024-03-06T11:33:17;-19493.22;;;9.86
60731;BMP280;46580;52.114;11.674;2024-03-06T11:35:42;-19491.66;;;9.81
60731;BMP280;46580;52.114;11.674;2024-03-06T11:38:17;-19484.50;;;9.56
60731;BMP280;46580;52.114;11.674;2024-03-06T11:40:43;-19485.50;;;9.60
60731;BMP280;46580;52.114;11.674;2024-03-06T11:43:27;-19494.53;;;9.90
60731;BMP280;46580;52.114;11.674;2024-03-06T11:45:53;-19498.66;;;10.04
60731;BMP280;46580;52.114;11.674;2024-03-06T11:48:18;-19505.97;;;10.29
60731;BMP280;46580;52.114;11.674;2024-03-06T11:50:47;-19506.13;;;10.30
60731;BMP280;46580;52.114;11.674;2024-03-06T11:53:14;-19497.38;;;10.00
60731;BMP280;46580;52.114;11.674;2024-03-06T11:55:39;-19503.81;;;10.22
60731;BMP280;46580;52.114;11.674;2024-03-06T11:58:05;-19506.53;;;10.31
60731;BMP280;46580;52.114;11.674;2024-03-06T12:00:30;-19508.81;;;10.39
60731;BMP280;46580;52.114;11.674;2024-03-06T12:02:56;-19503.09;;;10.20
60731;BMP280;46580;52.114;11.674;2024-03-06T12:05:22;-19504.09;;;10.23
60731;BMP280;46580;52.114;11.674;2024-03-06T12:07:52;-19503.38;;;10.21
60731;BMP280;46580;52.114;11.674;2024-03-06T12:10:17;-19508.13;;;10.37
60731;BMP280;46580;52.114;11.674;2024-03-06T12:12:46;-19516.69;;;10.66
60731;BMP280;46580;52.114;11.674;2024-03-06T12:15:13;-19530.44;;;11.13
60731;BMP280;46580;52.114;11.674;2024-03-06T12:17:48;-19515.84;;;10.63
60731;BMP280;46580;52.114;11.674;2024-03-06T12:20:17;-19507.81;;;10.36
60731;BMP280;46580;52.114;11.674;2024-03-06T12:22:52;-19518.00;;;10.70
60731;BMP280;46580;52.114;11.674;2024-03-06T12:25:24;-19536.88;;;11.34
60731;BMP280;46580;52.114;11.674;2024-03-06T12:27:51;-19540.59;;;11.47
60731;BMP280;46580;52.114;11.674;2024-03-06T12:30:20;-19534.28;;;11.26
60731;BMP280;46580;52.114;11.674;2024-03-06T12:32:56;-19543.16;;;11.56
60731;BMP280;46580;52.114;11.674;2024-03-06T12:35:25;-19551.88;;;11.86
60731;BMP280;46580;52.114;11.674;2024-03-06T12:37:54;-19544.31;;;11.60
60731;BMP280;46580;52.114;11.674;2024-03-06T12:40:20;-19553.44;;;11.91
60731;BMP280;46580;52.114;11.674;2024-03-06T12:42:45;-19540.44;;;11.47
60731;BMP280;46580;52.114;11.674;2024-03-06T12:45:12;-19535.28;;;11.29
60731;BMP280;46580;52.114;11.674;2024-03-06T12:47:43;-19539.44;;;11.43
60731;BMP280;46580;52.114;11.674;2024-03-06T12:50:11;-19541.16;;;11.49
60731;BMP280;46580;52.114;11.674;2024-03-06T12:52:37;-19543.00;;;11.55
60731;BMP280;46580;52.114;11.674;2024-03-06T12:55:03;-19535.88;;;11.31
60731;BMP280;46580;52.114;11.674;2024-03-06T12:57:31;-19541.59;;;11.51
60731;BMP280;46580;52.114;11.674;2024-03-06T12:59:56;-19536.72;;;11.34
60731;BMP280;46580;52.114;11.674;2024-03-06T13:02:22;-19531.00;;;11.14
60731;BMP280;46580;52.114;11.674;2024-03-06T13:04:47;-19533.28;;;11.22
60731;BMP280;46580;52.114;11.674;2024-03-06T13:07:14;-19518.69;;;10.73
60731;BMP280;46580;52.114;11.674;2024-03-06T13:09:39;-19528.41;;;11.06
60731;BMP280;46580;52.114;11.674;2024-03-06T13:12:05;-19528.72;;;11.07
60731;BMP280;46580;52.114;11.674;2024-03-06T13:14:31;-19534.72;;;11.27
60731;BMP280;46580;52.114;11.674;2024-03-06T13:16:57;-19542.31;;;11.53
60731;BMP280;46580;52.114;11.674;2024-03-06T13:19:22;-19535.72;;;11.31
60731;BMP280;46580;52.114;11.674;2024-03-06T13:21:48;-19530.16;;;11.12
60731;BMP280;46580;52.114;11.674;2024-03-06T13:24:13;-19531.84;;;11.17
60731;BMP280;46580;52.114;11.674;2024-03-06T13:26:39;-19541.31;;;11.50
60731;BMP280;46580;52.114;11.674;2024-03-06T13:29:05;-19541.59;;;11.51
60731;BMP280;46580;52.114;11.674;2024-03-06T13:31:31;-19530.16;;;11.12
60731;BMP280;46580;52.114;11.674;2024-03-06T13:34:01;-19540.72;;;11.48
60731;BMP280;46580;52.114;11.674;2024-03-06T13:36:28;-19531.44;;;11.16
60731;BMP280;46580;52.114;11.674;2024-03-06T13:38:53;-19528.84;;;11.07
60731;BMP280;46580;52.114;11.674;2024-03-06T13:41:19;-19536.72;;;11.34
60731;BMP280;46580;52.114;11.674;2024-03-06T13:43:44;-19528.56;;;11.06
60731;BMP280;46580;52.114;11.674;2024-03-06T13:46:09;-19534.16;;;11.25
60731;BMP280;46580;52.114;11.674;2024-03-06T13:48:35;-19526.13;;;10.98
60731;BMP280;46580;52.114;11.674;2024-03-06T13:51:01;-19520.41;;;10.78
60731;BMP280;46580;52.114;11.674;2024-03-06T13:53:27;-19522.41;;;10.85
60731;BMP280;46580;52.114;11.674;2024-03-06T13:55:52;-19529.84;;;11.11